createdAt,value
2024-03-27T00:00:08.767Z,5.20
2024-03-27T00:03:49.666Z,3.10
2024-03-27T00:07:42.604Z,2.60
2024-03-27T00:11:29.173Z,3.50
2024-03-27T00:15:05.959Z,2.40
2024-03-27T00:18:58.589Z,2.80
2024-03-27T00:22:49.335Z,3.20
2024-03-27T00:39:41.030Z,2.70
2024-03-27T00:43:32.311Z,4.20
2024-03-27T00:47:17.544Z,3.80
2024-03-27T00:55:07.145Z,4.10
2024-03-27T00:58:54.997Z,3.60
2024-03-27T01:06:55.298Z,2.90
2024-03-27T01:10:44.099Z,3.80
2024-03-27T01:22:58.982Z,3.10
2024-03-27T01:26:50.285Z,3.30
2024-03-27T01:34:54.757Z,3.20
2024-03-27T01:38:44.219Z,3.30
2024-03-27T01:46:35.347Z,1.80
2024-03-27T01:54:37.234Z,2.60
2024-03-27T02:02:45.635Z,3.50
2024-03-27T02:06:41.855Z,1.90
2024-03-27T02:10:24.390Z,2.30
2024-03-27T02:14:09.105Z,2.70
2024-03-27T02:22:14.889Z,2.70
2024-03-27T02:26:05.808Z,3.30
2024-03-27T02:33:56.347Z,3.00
2024-03-27T02:37:36.702Z,3.80
2024-03-27T02:45:18.888Z,2.80
2024-03-27T02:49:10.558Z,2.60
2024-03-27T02:53:01.193Z,3.20
2024-03-27T02:56:45.536Z,3.50
2024-03-27T03:00:39.921Z,3.60
2024-03-27T03:08:45.207Z,2.20
2024-03-27T03:12:45.299Z,2.80
2024-03-27T03:16:43.990Z,3.10
2024-03-27T03:20:31.583Z,2.70
2024-03-27T03:24:12.082Z,2.30
2024-03-27T03:27:59.725Z,3.90
2024-03-27T03:35:23.769Z,3.60
2024-03-27T03:38:49.234Z,3.40
2024-03-27T03:46:42.623Z,3.90
2024-03-27T03:50:30.338Z,3.70
2024-03-27T03:54:11.102Z,3.00
2024-03-27T03:57:55.074Z,2.50
2024-03-27T04:01:35.678Z,4.60
2024-03-27T04:05:26.802Z,3.30
2024-03-27T04:09:15.610Z,2.30
2024-03-27T04:13:04.432Z,4.00
2024-03-27T04:16:45.130Z,3.00
2024-03-27T04:20:27.467Z,2.90
2024-03-27T04:28:45.903Z,3.20
2024-03-27T04:32:38.551Z,2.70
2024-03-27T04:36:29.761Z,3.60
2024-03-27T04:40:18.254Z,4.20
2024-03-27T04:44:07.476Z,2.70
2024-03-27T04:48:01.688Z,3.10
2024-03-27T04:55:40.809Z,2.70
2024-03-27T04:59:28.585Z,2.80
2024-03-27T05:03:22.033Z,3.10
2024-03-27T05:07:09.736Z,3.60
2024-03-27T05:10:58.795Z,3.70
2024-03-27T05:14:47.552Z,3.30
2024-03-27T05:26:45.542Z,3.10
2024-03-27T05:30:32.774Z,3.00
2024-03-27T05:34:22.697Z,2.80
2024-03-27T05:38:16.801Z,3.30
2024-03-27T05:41:39.799Z,3.20
2024-03-27T05:45:07.563Z,2.90
2024-03-27T05:48:31.249Z,3.20
2024-03-27T05:52:21.062Z,3.10
2024-03-27T05:55:59.275Z,3.70
2024-03-27T06:03:35.693Z,3.00
2024-03-27T06:07:26.525Z,3.60
2024-03-27T06:11:06.128Z,3.60
2024-03-27T06:23:01.103Z,4.30
2024-03-27T06:31:11.739Z,3.60
2024-03-27T06:34:49.653Z,3.80
2024-03-27T06:38:40.689Z,3.30
2024-03-27T06:42:22.337Z,3.30
2024-03-27T06:46:01.172Z,2.70
2024-03-27T06:49:39.570Z,3.50
2024-03-27T06:53:29.442Z,3.70
2024-03-27T06:57:20.998Z,3.80
2024-03-27T07:01:13.924Z,2.70
2024-03-27T07:05:07.226Z,2.90
2024-03-27T07:09:05.071Z,3.30
2024-03-27T07:12:40.300Z,2.80
2024-03-27T07:16:19.776Z,2.70
2024-03-27T07:20:22.780Z,2.50
2024-03-27T07:24:20.466Z,2.80
2024-03-27T07:28:03.054Z,2.80
2024-03-27T07:36:06.030Z,3.10
2024-03-27T07:39:33.289Z,2.60
2024-03-27T07:43:24.632Z,2.50
2024-03-27T07:47:13.778Z,2.30
2024-03-27T07:50:52.855Z,3.00
2024-03-27T07:54:33.479Z,2.60
2024-03-27T07:58:30.124Z,2.40
2024-03-27T08:06:21.617Z,2.80
2024-03-27T08:09:54.695Z,2.70
2024-03-27T08:13:38.590Z,2.20
2024-03-27T08:17:19.262Z,3.00
2024-03-27T08:21:18.040Z,2.00
2024-03-27T08:25:14.918Z,2.20
2024-03-27T08:33:40.990Z,2.40
2024-03-27T08:41:58.487Z,2.30
2024-03-27T08:45:46.377Z,2.30
2024-03-27T08:53:46.087Z,2.00
2024-03-27T09:01:40.255Z,2.40
2024-03-27T09:05:39.707Z,2.60
2024-03-27T09:09:20.138Z,1.80
2024-03-27T09:13:11.560Z,1.90
2024-03-27T09:16:52.420Z,2.60
2024-03-27T09:24:49.264Z,2.30
2024-03-27T09:28:22.764Z,1.80
2024-03-27T09:32:10.603Z,2.00
2024-03-27T09:36:05.188Z,2.10
2024-03-27T09:44:09.692Z,2.40
2024-03-27T09:52:28.562Z,2.20
2024-03-27T09:56:21.018Z,2.30
2024-03-27T10:04:20.378Z,2.10
2024-03-27T10:08:08.083Z,1.80
2024-03-27T10:12:02.332Z,1.50
2024-03-27T10:15:50.211Z,1.60
2024-03-27T10:19:43.071Z,1.30
2024-03-27T10:23:30.857Z,1.80
2024-03-27T10:31:40.461Z,1.80
2024-03-27T10:35:30.087Z,1.80
2024-03-27T10:39:20.523Z,1.70
2024-03-27T10:51:37.576Z,2.00
2024-03-27T10:55:32.162Z,1.60
2024-03-27T11:03:30.658Z,0.90
2024-03-27T11:07:29.839Z,2.30
2024-03-27T11:11:21.816Z,1.40
2024-03-27T11:19:29.608Z,1.80
2024-03-27T11:31:17.071Z,2.00
2024-03-27T11:35:05.112Z,1.70
2024-03-27T11:43:20.179Z,2.00
2024-03-27T11:47:11.154Z,2.70
2024-03-27T11:59:41.045Z,1.80
2024-03-27T12:11:53.191Z,2.10
2024-03-27T12:15:39.958Z,1.60
2024-03-27T12:19:19.403Z,2.10
2024-03-27T12:23:11.047Z,1.40
2024-03-27T12:27:00.881Z,1.90
2024-03-27T12:30:43.869Z,2.30
2024-03-27T12:34:46.646Z,2.70
2024-03-27T12:42:48.966Z,1.70
2024-03-27T12:46:35.447Z,1.90
2024-03-27T12:50:37.249Z,1.90
2024-03-27T12:54:25.334Z,1.70
2024-03-27T12:58:15.654Z,1.50
2024-03-27T13:06:14.974Z,1.90
2024-03-27T13:10:17.052Z,1.60
2024-03-27T13:14:09.748Z,1.10
2024-03-27T13:22:15.986Z,1.40
2024-03-27T13:26:04.834Z,1.40
2024-03-27T13:29:58.309Z,1.40
2024-03-27T13:33:50.087Z,1.70
2024-03-27T13:42:04.041Z,1.40
2024-03-27T13:45:57.831Z,1.70
2024-03-27T13:49:59.443Z,2.00
2024-03-27T13:58:09.444Z,1.30
2024-03-27T14:06:21.776Z,1.50
2024-03-27T14:14:13.836Z,1.20
2024-03-27T14:18:08.609Z,1.20
2024-03-27T14:26:12.435Z,1.20
2024-03-27T14:30:03.325Z,1.30
2024-03-27T14:38:31.888Z,1.50
2024-03-27T14:46:23.510Z,1.40
2024-03-27T14:54:41.925Z,1.40
2024-03-27T14:58:21.071Z,1.30
2024-03-27T15:10:46.309Z,1.50
2024-03-27T15:14:47.816Z,1.70
2024-03-27T15:18:45.623Z,1.20
2024-03-27T15:22:41.672Z,1.40
2024-03-27T15:26:28.113Z,1.20
2024-03-27T15:30:18.963Z,1.40
2024-03-27T15:34:16.230Z,1.60
2024-03-27T15:38:09.484Z,1.50
2024-03-27T15:42:06.093Z,3.10
2024-03-27T15:50:06.733Z,1.60
2024-03-27T15:54:08.167Z,1.40
2024-03-27T15:58:00.019Z,1.20
2024-03-27T16:01:49.032Z,1.40
2024-03-27T16:05:29.868Z,2.50
2024-03-27T16:09:11.383Z,2.50
2024-03-27T16:12:59.250Z,2.20
2024-03-27T16:16:55.062Z,1.80
2024-03-27T16:20:42.827Z,1.30
2024-03-27T16:24:30.436Z,2.00
2024-03-27T16:32:50.113Z,2.80
2024-03-27T16:36:39.471Z,3.50
2024-03-27T16:40:36.371Z,3.30
2024-03-27T16:44:43.446Z,3.10
2024-03-27T16:52:51.221Z,2.70
2024-03-27T17:04:41.659Z,2.10
2024-03-27T17:08:32.267Z,2.00
2024-03-27T17:12:23.708Z,1.40
2024-03-27T17:16:12.171Z,1.90
2024-03-27T17:19:56.903Z,2.10
2024-03-27T17:23:53.182Z,1.50
2024-03-27T17:27:43.791Z,2.40
2024-03-27T17:31:28.437Z,2.00
2024-03-27T17:35:20.848Z,2.30
2024-03-27T17:51:24.332Z,1.60
2024-03-27T18:03:27.678Z,1.60
2024-03-27T18:11:26.941Z,5.90
2024-03-27T18:23:16.622Z,1.60
2024-03-27T18:35:52.566Z,1.10
2024-03-27T18:47:57.020Z,1.50
2024-03-27T18:51:49.872Z,1.80
2024-03-27T18:55:43.890Z,1.20
2024-03-27T18:59:35.153Z,1.10
2024-03-27T19:07:46.167Z,1.50
2024-03-27T19:11:15.336Z,1.30
2024-03-27T19:18:29.940Z,1.20
2024-03-27T19:21:56.353Z,1.50
2024-03-27T19:25:15.467Z,1.20
2024-03-27T19:29:03.178Z,1.70
2024-03-27T19:32:50.675Z,1.00
2024-03-27T19:36:43.948Z,1.40
2024-03-27T19:39:59.519Z,1.20
2024-03-27T19:48:03.352Z,1.20
2024-03-27T19:52:05.314Z,1.10
2024-03-27T19:55:59.228Z,1.30
2024-03-27T19:59:47.040Z,2.00
2024-03-27T20:03:32.268Z,1.60
2024-03-27T20:06:52.089Z,1.60
2024-03-27T20:10:28.447Z,1.20
2024-03-27T20:14:11.677Z,1.70
2024-03-27T20:22:17.847Z,1.60
2024-03-27T20:26:16.196Z,1.20
2024-03-27T20:34:21.066Z,1.90
2024-03-27T20:47:01.360Z,2.00
2024-03-27T20:55:05.181Z,1.60
2024-03-27T20:58:41.602Z,1.70
2024-03-27T21:22:41.818Z,1.70
2024-03-27T21:47:34.196Z,2.20
2024-03-27T21:51:21.985Z,1.40
2024-03-27T21:55:13.014Z,2.40
2024-03-27T21:58:56.635Z,1.20
2024-03-27T22:02:49.123Z,1.60
2024-03-27T22:06:40.002Z,1.70
2024-03-27T22:14:22.043Z,1.30
2024-03-27T22:22:20.025Z,1.50
2024-03-27T22:26:11.840Z,1.30
2024-03-27T22:29:39.970Z,1.30
2024-03-27T22:33:32.784Z,1.70
2024-03-27T22:37:15.244Z,1.90
2024-03-27T22:41:07.634Z,1.80
2024-03-27T23:06:03.404Z,1.80
2024-03-27T23:09:58.300Z,1.50
2024-03-27T23:39:34.473Z,1.10
2024-03-27T23:43:26.178Z,1.90
2024-03-27T23:55:53.826Z,1.30
2024-03-27T23:59:25.858Z,1.50
